Sim-Planet VA

Sim-Planet Nouvel Horizon. By: Anthony Pay
Since 2020.




 METAR ET TAF INFORMATION
METAR FOR LPFR
ADDS - METARS form results

(0829 UTC 21 January 2022)
Data provider http://aviationweather.gov/metar/data/
 
METAR text: LPFR 210800Z 02008KT CAVOK 09/03 Q1023
Conditions at: LPFR (FARO , PT) observed 0800 UTC 21 January 2022
Temperature: 9.0°C (48°F)
Dewpoint: 3.0°C (37°F) [RH = 66%]
Pressure (altimeter): 30.21 inches Hg (1023.0 mb)
Winds: from the NNE (20 degrees) at 9 MPH (8 knots; 4.1 m/s)
Visibility: 6 or more miles (10+ km)
Ceiling: ceiling and visibility are OK
Clouds: unknown
Weather: no significant weather observed at this time

METAR text: LPFR 210730Z 01008KT CAVOK 09/03 Q1023
Conditions at: LPFR (FARO , PT) observed 0730 UTC 21 January 2022
Temperature: 9.0°C (48°F)
Dewpoint: 3.0°C (37°F) [RH = 66%]
Pressure (altimeter): 30.21 inches Hg (1023.0 mb)
Winds: from the N (10 degrees) at 9 MPH (8 knots; 4.1 m/s)
Visibility: 6 or more miles (10+ km)
Ceiling: ceiling and visibility are OK
Clouds: unknown
Weather: no significant weather observed at this time

Forecast for: LPFR (FARO , PT)
Text: TAF LPFR 210500Z 2106/2206 03007KT CAVOK
Forecast period: 0600 to 1000 UTC 21 January 2022
Forecast type: FROM: standard forecast or significant change
Winds: from the NNE (30 degrees) at 8 MPH (7 knots; 3.6 m/s)
Visibility: 6 or more miles (10+ km)
Ceiling: unknown
Clouds: missing
Weather: NSW  (no significant weather)
Text: BECMG 2110/2113 10010KT
Forecast period: 1000 to 1700 UTC 21 January 2022
Forecast type: BECOMING: Conditions expected to become as follows by 1300 UTC 21 January 2022
Winds: from the E (100 degrees) at 12 MPH (10 knots; 5.1 m/s)
Visibility: 6 or more miles (10+ km)
Ceiling: unknown
Clouds: missing
Weather: NSW  (no significant weather)
Text: BECMG 2117/2120 06008KT
Forecast period: 1700 UTC 21 January 2022 to 0600 UTC 22 January 2022
Forecast type: BECOMING: Conditions expected to become as follows by 2000 UTC 21 January 2022
Winds: from the ENE (60 degrees) at 9 MPH (8 knots; 4.1 m/s)
Visibility: 6 or more miles (10+ km)
Ceiling: unknown
Clouds: missing
Weather: NSW  (no significant weather)

 AÉROPORT DE AÉROPORT

 INFORMATIONS DE PISTE
Piste 10 Longueur de la piste 8169 ft Largeur de la piste 148 ft
Élévation de la piste 24 ft Seuil de la piste déplacés 148 ft Runway heading 100
Piste 28 Longueur de la piste 8169 ft Largeur de la piste 148 ft
Élévation de la piste 18 ft Seuil de la piste déplacés 148 ft Runway heading 280

 AÉROPORT FRÉQUENCES
Type APP Nom APP Féquence 119.4 MHZ
Type ATIS Nom ATIS Féquence 124.2 MHZ
Type GND Nom GND Féquence 118.575 MHZ
Type TWR Nom TWR Féquence 118.2 MHZ

 SIDA DE NAVIGATION
Type NDB Nom Faro Féquence 332 KHZ
Type VOR-DME Nom Faro Féquence 112800 KHZ

Nos Partenaires